Time;durP1;ratioP1;P1;durP2;ratioP2;P2;SDS_P1;SDS_P2;PMS_P1;PMS_P2;Temp;Humidity;BMP_temperature;BMP_pressure;BME280_temperature;BME280_humidity;BME280_pressure;Samples;Min_cycle;Max_cycle;Signal;HPM_P1;HPM_P2
2022/02/07 00:01:05;;;;;;;11.13;1.73;;;4.00;99.90;;;;;;5023957;28;20501;-50
2022/02/07 00:03:41;;;;;;;7.53;1.50;;;4.00;99.90;;;;;;5004071;28;20037;-54
2022/02/07 00:06:07;;;;;;;9.43;2.08;;;4.00;99.90;;;;;;4990637;28;20057;-52
2022/02/07 00:08:34;;;;;;;5.00;1.55;;;4.00;99.90;;;;;;5001198;28;20045;-51
2022/02/07 00:11:00;;;;;;;7.95;1.25;;;3.90;99.90;;;;;;5003635;28;20409;-52
2022/02/07 00:13:26;;;;;;;8.40;0.90;;;3.90;99.90;;;;;;5011887;28;20046;-51
2022/02/07 00:15:51;;;;;;;6.75;1.42;;;3.90;99.90;;;;;;5015338;28;20046;-52
2022/02/07 00:18:17;;;;;;;6.97;1.20;;;3.90;99.90;;;;;;5016013;28;20053;-53
2022/02/07 00:20:43;;;;;;;7.85;1.15;;;3.90;99.90;;;;;;5033270;28;20037;-51
2022/02/07 00:23:09;;;;;;;6.30;0.93;;;3.80;99.90;;;;;;5035543;28;20053;-51
2022/02/07 00:25:35;;;;;;;8.98;1.30;;;3.80;99.90;;;;;;5033151;28;20041;-51
2022/02/07 00:28:02;;;;;;;12.40;1.50;;;3.80;99.90;;;;;;5016440;28;20041;-52
2022/02/07 00:30:27;;;;;;;7.90;1.25;;;3.80;99.90;;;;;;5022660;28;20557;-52
2022/02/07 00:32:53;;;;;;;9.27;1.25;;;3.80;99.90;;;;;;5016651;28;20144;-52
2022/02/07 00:35:21;;;;;;;7.18;1.20;;;3.70;99.90;;;;;;5035378;28;20049;-51
2022/02/07 00:37:49;;;;;;;6.07;1.55;;;3.80;99.90;;;;;;5034824;28;20116;-50
2022/02/07 00:42:54;;;;;;;10.18;1.35;;;3.70;99.90;;;;;;5035163;28;20661;-50
2022/02/07 00:45:48;;;;;;;22.45;2.47;;;3.80;99.90;;;;;;5034243;28;20587;-53
2022/02/07 00:48:11;;;;;;;16.83;2.50;;;3.90;99.90;;;;;;5033677;28;20049;-51
2022/02/07 00:50:40;;;;;;;18.35;2.35;;;3.90;99.90;;;;;;5034995;28;20083;-53
2022/02/07 00:53:06;;;;;;;8.95;1.85;;;4.00;99.90;;;;;;5034878;28;20037;-53
2022/02/07 00:55:32;;;;;;;14.45;2.53;;;4.10;99.90;;;;;;5034816;28;20041;-52
2022/02/07 00:57:58;;;;;;;11.40;2.15;;;4.10;99.90;;;;;;5034429;28;20045;-52
2022/02/07 01:00:24;;;;;;;12.00;2.00;;;4.10;99.90;;;;;;5024477;28;20410;-52
2022/02/07 01:02:50;;;;;;;11.65;2.40;;;4.10;99.90;;;;;;5034720;28;20533;-53
2022/02/07 01:05:17;;;;;;;15.65;1.60;;;4.10;99.90;;;;;;5034780;28;20117;-53
2022/02/07 01:07:48;;;;;;;9.07;1.58;;;4.10;99.90;;;;;;5034325;28;20160;-55
2022/02/07 01:10:19;;;;;;;10.38;1.55;;;4.10;99.90;;;;;;5034446;28;20042;-54
2022/02/07 01:48:13;;;;;;;9.43;1.30;;;4.00;99.90;;;;;;5032279;28;20068;-51
2022/02/07 01:50:46;;;;;;;7.50;1.27;;;4.00;99.90;;;;;;5031589;28;20052;-55
2022/02/07 01:55:58;;;;;;;8.82;1.70;;;4.00;99.90;;;;;;5033538;28;20049;-55
2022/02/07 01:58:25;;;;;;;18.17;1.75;;;4.00;99.90;;;;;;5023518;28;20052;-54
2022/02/07 02:00:51;;;;;;;10.55;2.13;;;4.00;99.90;;;;;;5007011;28;20038;-55
2022/02/07 02:03:17;;;;;;;8.57;1.63;;;4.00;99.90;;;;;;5018421;28;20045;-54
2022/02/07 02:05:44;;;;;;;10.77;2.05;;;4.00;99.90;;;;;;5013585;28;20034;-55
2022/02/07 02:08:11;;;;;;;10.13;1.85;;;4.00;99.90;;;;;;5013659;28;20045;-53
2022/02/07 02:10:44;;;;;;;15.65;2.78;;;4.00;99.90;;;;;;5013588;28;20042;-53
2022/02/07 02:13:18;;;;;;;17.52;2.38;;;4.00;99.90;;;;;;5013696;28;20030;-53
2022/02/07 02:16:02;;;;;;;12.13;1.98;;;4.00;99.90;;;;;;5031606;28;20046;-55
2022/02/07 02:38:02;;;;;;;15.48;3.25;;;4.30;99.90;;;;;;5011914;28;20037;-55
2022/02/07 02:45:57;;;;;;;16.92;2.63;;;4.50;99.90;;;;;;5002278;28;20089;-52
2022/02/07 02:48:25;;;;;;;13.30;1.90;;;4.60;99.90;;;;;;4993735;28;20077;-54
2022/02/07 02:50:54;;;;;;;13.20;2.28;;;4.60;99.90;;;;;;4993605;28;20049;-54
2022/02/07 02:53:21;;;;;;;14.20;2.08;;;4.60;99.90;;;;;;5006688;28;20064;-55
2022/02/07 02:55:49;;;;;;;9.45;1.60;;;4.60;99.90;;;;;;4997846;28;20462;-56
2022/02/07 02:58:18;;;;;;;16.77;2.58;;;4.60;99.90;;;;;;5032277;28;20439;-56
2022/02/07 03:00:47;;;;;;;15.07;2.58;;;4.60;99.90;;;;;;5032433;28;20045;-55
2022/02/07 03:03:14;;;;;;;13.88;2.75;;;4.60;99.90;;;;;;5014547;28;20045;-52
2022/02/07 03:05:43;;;;;;;16.95;2.38;;;4.60;99.90;;;;;;5031304;28;20128;-55
2022/02/07 03:08:09;;;;;;;18.17;3.00;;;4.60;99.90;;;;;;5031317;28;20045;-55
2022/02/07 03:13:14;;;;;;;14.32;2.42;;;4.60;99.90;;;;;;5032052;28;20041;-54
2022/02/07 03:18:25;;;;;;;18.90;2.60;;;4.50;99.90;;;;;;5031151;28;20529;-53
2022/02/07 03:20:52;;;;;;;18.50;2.40;;;4.50;99.90;;;;;;5031694;28;20048;-56
2022/02/07 03:23:18;;;;;;;20.25;2.80;;;4.50;99.90;;;;;;5032034;28;20102;-55
2022/02/07 03:25:44;;;;;;;18.13;3.05;;;4.50;99.90;;;;;;5005838;28;20030;-55
2022/02/07 03:28:10;;;;;;;15.73;3.10;;;4.50;99.90;;;;;;5010806;28;20605;-53
2022/02/07 03:30:36;;;;;;;21.33;3.17;;;4.50;99.90;;;;;;5012539;28;20112;-55
2022/02/07 03:33:03;;;;;;;21.55;2.88;;;4.50;99.90;;;;;;5013821;28;20394;-49
2022/02/07 03:35:30;;;;;;;22.10;2.80;;;4.60;99.90;;;;;;5030840;28;20045;-53
2022/02/07 03:37:55;;;;;;;19.20;2.38;;;4.60;99.90;;;;;;5028558;28;20084;-52
2022/02/07 03:40:22;;;;;;;20.60;3.00;;;4.60;99.90;;;;;;5031579;28;20069;-49
2022/02/07 03:42:47;;;;;;;15.88;2.95;;;4.70;99.90;;;;;;5031999;28;20033;-53
2022/02/07 03:45:13;;;;;;;16.08;3.08;;;4.70;99.90;;;;;;5013748;28;20048;-53
2022/02/07 03:47:39;;;;;;;22.17;3.00;;;4.80;99.90;;;;;;5032080;28;20076;-55
2022/02/07 03:50:05;;;;;;;19.67;3.22;;;4.80;99.90;;;;;;5025098;28;20061;-52
2022/02/07 03:52:31;;;;;;;19.85;2.95;;;4.80;99.90;;;;;;5012820;28;20117;-52
2022/02/07 03:54:56;;;;;;;14.35;2.97;;;4.90;99.90;;;;;;5022080;28;20120;-52
2022/02/07 03:57:22;;;;;;;17.17;2.90;;;4.90;99.90;;;;;;5031936;28;20041;-52
2022/02/07 03:59:48;;;;;;;29.55;3.72;;;4.90;99.90;;;;;;5032130;28;20382;-52
2022/02/07 04:02:14;;;;;;;18.65;2.95;;;4.90;99.90;;;;;;5032004;28;20036;-52
2022/02/07 04:04:42;;;;;;;25.85;3.78;;;4.90;99.90;;;;;;5025353;28;20041;-53
2022/02/07 04:07:09;;;;;;;20.08;2.80;;;4.90;99.90;;;;;;5011689;28;20048;-51
2022/02/07 04:09:44;;;;;;;19.92;2.95;;;4.80;99.90;;;;;;5020587;28;20037;-53
2022/02/07 04:12:15;;;;;;;17.63;2.90;;;4.90;99.90;;;;;;5031954;28;20042;-53
2022/02/07 04:14:41;;;;;;;25.85;3.58;;;5.00;99.90;;;;;;5028689;28;20403;-53
2022/02/07 04:17:10;;;;;;;21.55;2.97;;;5.00;99.90;;;;;;5031002;28;20037;-51
2022/02/07 04:19:36;;;;;;;18.05;2.88;;;5.00;99.90;;;;;;5030486;28;20046;-54
2022/02/07 04:22:07;;;;;;;20.60;3.17;;;5.00;99.90;;;;;;5031857;28;20260;-53
2022/02/07 04:24:33;;;;;;;26.98;3.38;;;5.00;99.90;;;;;;5031600;28;20037;-52
2022/02/07 04:26:59;;;;;;;22.52;3.22;;;4.90;99.90;;;;;;5019796;28;20034;-55
2022/02/07 04:29:25;;;;;;;26.67;3.90;;;5.00;99.90;;;;;;4993842;28;20191;-55
2022/02/07 04:31:50;;;;;;;18.98;3.55;;;5.00;99.90;;;;;;5011644;28;20128;-54
2022/02/07 04:34:16;;;;;;;18.85;3.83;;;5.00;99.90;;;;;;5025100;28;20117;-55
2022/02/07 04:36:44;;;;;;;24.52;3.13;;;5.00;99.90;;;;;;5031138;28;20482;-56
2022/02/07 04:39:10;;;;;;;20.23;3.75;;;5.00;99.90;;;;;;5031346;28;20117;-55
2022/02/07 04:41:40;;;;;;;31.55;3.80;;;5.00;99.90;;;;;;5030740;28;20037;-55
2022/02/07 04:44:09;;;;;;;21.20;3.15;;;5.10;99.90;;;;;;5031556;28;20099;-55
2022/02/07 04:47:08;;;;;;;16.40;3.33;;;5.00;99.90;;;;;;5030198;28;20092;-53
2022/02/07 04:54:59;;;;;;;18.45;3.05;;;5.10;99.90;;;;;;5006582;28;20052;-53
2022/02/07 05:00:21;;;;;;;21.50;3.53;;;5.10;99.90;;;;;;5001836;28;20410;-55
2022/02/07 05:02:59;;;;;;;24.48;4.05;;;5.10;99.90;;;;;;4999645;28;20045;-53
2022/02/07 05:13:40;;;;;;;17.73;3.33;;;5.10;99.90;;;;;;5015103;28;20052;-53
2022/02/07 05:19:02;;;;;;;21.55;4.15;;;5.00;99.90;;;;;;5095275;22;20057;-49
2022/02/07 05:21:28;;;;;;;19.88;3.20;;;5.00;99.90;;;;;;5047890;28;20044;-49
2022/02/07 05:23:54;;;;;;;20.35;3.40;;;5.00;99.90;;;;;;5023381;28;20042;-49
2022/02/07 05:26:21;;;;;;;19.05;3.35;;;5.00;99.90;;;;;;5037490;28;20033;-50
2022/02/07 05:28:47;;;;;;;22.42;4.47;;;5.00;99.90;;;;;;5031629;28;20117;-50
2022/02/07 05:31:13;;;;;;;24.98;3.33;;;5.10;99.90;;;;;;5031875;28;20112;-49
2022/02/07 05:33:39;;;;;;;24.83;3.42;;;5.00;99.90;;;;;;5033923;28;20030;-49
2022/02/07 05:36:09;;;;;;;25.90;3.97;;;5.00;99.90;;;;;;5036861;28;20489;-52
2022/02/07 05:38:38;;;;;;;27.52;4.45;;;4.90;99.90;;;;;;5046697;28;20044;-52
2022/02/07 05:41:05;;;;;;;19.80;3.85;;;4.90;99.90;;;;;;5048224;28;20083;-51
2022/02/07 05:43:31;;;;;;;29.50;4.13;;;5.00;99.90;;;;;;5033040;28;20045;-52
2022/02/07 05:45:56;;;;;;;24.02;3.78;;;5.00;99.90;;;;;;5027659;28;20042;-51
2022/02/07 05:48:22;;;;;;;20.92;3.95;;;5.00;99.90;;;;;;5027855;28;20041;-48
2022/02/07 05:50:48;;;;;;;21.70;3.50;;;5.00;99.90;;;;;;5026789;28;20033;-48
2022/02/07 05:53:13;;;;;;;20.80;3.58;;;5.00;99.90;;;;;;5025151;28;20033;-50
2022/02/07 05:55:39;;;;;;;23.55;4.18;;;5.00;99.90;;;;;;5033520;28;20115;-51
2022/02/07 05:58:04;;;;;;;20.67;3.33;;;5.00;99.90;;;;;;5029984;28;20052;-50
2022/02/07 06:00:34;;;;;;;18.08;2.55;;;5.10;99.90;;;;;;5016585;28;20045;-47
2022/02/07 06:03:00;;;;;;;23.88;3.75;;;5.10;99.90;;;;;;5029110;28;20054;-50
2022/02/07 06:05:26;;;;;;;29.05;3.53;;;5.20;99.90;;;;;;5014031;28;20089;-50
2022/02/07 06:07:52;;;;;;;19.98;3.08;;;5.10;99.90;;;;;;5006292;28;20045;-48
2022/02/07 06:10:18;;;;;;;24.83;3.58;;;5.10;99.90;;;;;;5033550;28;20088;-48
2022/02/07 06:12:45;;;;;;;22.70;3.63;;;5.10;99.90;;;;;;5032494;28;20087;-47
2022/02/07 06:15:11;;;;;;;17.92;3.88;;;5.00;99.90;;;;;;5033630;28;20049;-47
2022/02/07 06:17:37;;;;;;;27.25;4.45;;;5.00;99.90;;;;;;5033189;28;20136;-47
2022/02/07 06:20:04;;;;;;;23.98;3.17;;;4.90;99.90;;;;;;5030875;28;20045;-47
2022/02/07 06:22:29;;;;;;;29.40;3.90;;;4.90;99.90;;;;;;5032074;28;20486;-48
2022/02/07 06:24:57;;;;;;;24.67;3.75;;;4.80;99.90;;;;;;5025056;28;20088;-50
2022/02/07 06:27:23;;;;;;;24.23;3.20;;;4.80;99.90;;;;;;5018306;28;20048;-48
2022/02/07 06:29:49;;;;;;;25.23;4.03;;;4.80;99.90;;;;;;5015840;28;20655;-54
2022/02/07 06:32:14;;;;;;;21.20;3.15;;;4.80;99.90;;;;;;5022378;28;20037;-48
2022/02/07 06:34:40;;;;;;;19.08;3.40;;;4.70;99.90;;;;;;5020235;28;20084;-51
2022/02/07 06:37:07;;;;;;;15.73;2.30;;;4.70;99.90;;;;;;5015165;28;20538;-49
2022/02/07 06:39:33;;;;;;;15.07;2.60;;;4.70;99.90;;;;;;5023386;28;20040;-48
2022/02/07 06:41:58;;;;;;;13.07;2.42;;;4.60;99.90;;;;;;5021912;28;20042;-50
2022/02/07 06:44:25;;;;;;;14.23;3.00;;;4.60;99.90;;;;;;5013212;28;20092;-48
2022/02/07 06:46:50;;;;;;;20.67;2.55;;;4.60;99.90;;;;;;5007802;28;20073;-48
2022/02/07 06:49:16;;;;;;;18.58;2.33;;;4.50;99.90;;;;;;5030090;28;20080;-48
2022/02/07 06:51:42;;;;;;;14.48;2.45;;;4.50;99.90;;;;;;5030073;28;20042;-48
2022/02/07 06:54:08;;;;;;;14.15;2.75;;;4.40;99.90;;;;;;5031627;28;20067;-50
2022/02/07 06:56:33;;;;;;;18.45;2.88;;;4.30;99.90;;;;;;5031383;28;20135;-50
2022/02/07 06:58:59;;;;;;;15.55;2.80;;;4.20;99.90;;;;;;5030327;28;20042;-52
2022/02/07 07:01:25;;;;;;;18.35;3.00;;;4.20;99.90;;;;;;5020539;28;20142;-50
2022/02/07 07:03:50;;;;;;;22.50;2.78;;;4.10;99.90;;;;;;5032278;28;20408;-47
2022/02/07 07:06:16;;;;;;;26.15;3.47;;;4.00;99.90;;;;;;5031259;28;20102;-48
2022/02/07 07:08:54;;;;;;;27.88;4.35;;;4.00;99.90;;;;;;5032257;28;20171;-48
2022/02/07 07:11:25;;;;;;;24.42;4.10;;;4.00;99.90;;;;;;5029579;28;20041;-50
2022/02/07 07:14:03;;;;;;;22.42;3.20;;;3.90;99.90;;;;;;5019336;28;20482;-48
2022/02/07 07:18:55;;;;;;;22.58;3.05;;;3.90;99.90;;;;;;5012306;28;20052;-47
2022/02/07 07:21:20;;;;;;;27.85;3.65;;;3.90;99.90;;;;;;5012380;28;20038;-48
2022/02/07 07:23:46;;;;;;;24.90;4.15;;;3.90;99.90;;;;;;5020636;28;20091;-49
2022/02/07 07:26:11;;;;;;;26.13;3.28;;;3.90;99.90;;;;;;5024614;28;20054;-47
2022/02/07 07:28:39;;;;;;;16.58;3.40;;;3.90;99.90;;;;;;5029068;28;20033;-47
2022/02/07 07:31:08;;;;;;;22.10;3.00;;;3.90;99.90;;;;;;5023851;28;20087;-47
2022/02/07 07:33:36;;;;;;;19.02;2.85;;;4.00;99.90;;;;;;5009939;28;20440;-50
2022/02/07 07:36:01;;;;;;;23.45;4.60;;;4.00;99.90;;;;;;5027387;28;20033;-48
2022/02/07 07:38:27;;;;;;;13.70;3.05;;;4.00;99.90;;;;;;5015351;28;20410;-48
2022/02/07 07:40:53;;;;;;;27.83;3.80;;;4.00;99.90;;;;;;5019981;28;20038;-49
2022/02/07 07:43:18;;;;;;;24.50;2.97;;;4.00;99.90;;;;;;5022115;28;20034;-51
2022/02/07 07:45:47;;;;;;;23.30;3.28;;;4.00;99.90;;;;;;5019635;28;20044;-48
2022/02/07 07:48:19;;;;;;;22.67;2.60;;;4.10;99.90;;;;;;5028757;28;20037;-53
2022/02/07 07:50:53;;;;;;;23.52;3.17;;;4.10;99.90;;;;;;5002144;28;20041;-49
2022/02/07 07:53:28;;;;;;;26.90;3.03;;;4.20;99.90;;;;;;5024733;28;20046;-50
2022/02/07 08:03:54;;;;;;;27.73;3.63;;;4.40;99.90;;;;;;5023179;28;20561;-50
2022/02/07 08:06:36;;;;;;;25.77;3.55;;;4.50;99.90;;;;;;5021056;28;20406;-51
2022/02/07 08:11:31;;;;;;;25.20;6.55;;;4.60;99.90;;;;;;5016500;28;20297;-55
2022/02/07 08:13:58;;;;;;;27.83;4.00;;;4.70;99.90;;;;;;5019237;28;20034;-48
2022/02/07 08:16:23;;;;;;;22.17;3.47;;;4.70;99.90;;;;;;5026275;28;20390;-50
2022/02/07 08:18:49;;;;;;;25.38;3.95;;;4.80;99.90;;;;;;5026617;28;20045;-48
2022/02/07 08:21:14;;;;;;;25.70;4.00;;;4.70;99.90;;;;;;5011506;28;20037;-48
2022/02/07 08:23:41;;;;;;;27.65;3.63;;;4.80;99.90;;;;;;5011873;28;20037;-48
2022/02/07 08:26:07;;;;;;;25.83;4.20;;;4.80;99.90;;;;;;5017697;28;20116;-51
2022/02/07 08:28:33;;;;;;;31.83;4.47;;;4.80;99.90;;;;;;5023476;28;20037;-49
2022/02/07 08:30:59;;;;;;;30.75;3.85;;;4.80;99.90;;;;;;5019895;28;20040;-48
2022/02/07 08:33:25;;;;;;;22.15;3.90;;;4.90;99.90;;;;;;5020257;28;20117;-48
2022/02/07 08:35:51;;;;;;;23.27;4.45;;;4.90;99.90;;;;;;5029850;28;20120;-50
2022/02/07 08:38:19;;;;;;;26.05;4.10;;;4.90;99.90;;;;;;5026387;28;20040;-51
2022/02/07 08:40:48;;;;;;;24.00;3.60;;;5.00;99.90;;;;;;5035344;28;20056;-50
2022/02/07 08:43:14;;;;;;;24.77;4.00;;;5.00;99.90;;;;;;5035174;28;20073;-48
2022/02/07 08:45:40;;;;;;;25.98;3.50;;;5.10;99.90;;;;;;5034980;28;20049;-47
2022/02/07 08:48:06;;;;;;;26.38;3.85;;;5.10;99.90;;;;;;5034611;28;20037;-48
2022/02/07 08:50:33;;;;;;;19.20;3.47;;;5.20;99.90;;;;;;5034719;28;20041;-49
2022/02/07 08:53:01;;;;;;;24.52;3.38;;;5.20;99.90;;;;;;5035133;28;20037;-51
2022/02/07 08:55:33;;;;;;;28.50;3.95;;;5.30;99.90;;;;;;5017065;28;20409;-48
2022/02/07 08:58:04;;;;;;;26.58;3.53;;;5.40;99.90;;;;;;5033269;28;20045;-53
2022/02/07 09:03:18;;;;;;;23.38;3.30;;;5.70;99.90;;;;;;5034539;28;20513;-51
2022/02/07 09:06:31;;;;;;;27.50;4.47;;;5.50;99.90;;;;;;5034593;28;20045;-50
2022/02/07 09:11:13;;;;;;;23.60;3.90;;;5.70;99.90;;;;;;5034353;28;20046;-48
2022/02/07 09:13:41;;;;;;;24.90;3.45;;;5.80;99.90;;;;;;5030112;28;20105;-50
2022/02/07 09:18:37;;;;;;;21.13;3.13;;;5.90;99.90;;;;;;5014510;28;20041;-51
2022/02/07 09:21:06;;;;;;;30.98;3.97;;;5.90;99.90;;;;;;5014517;28;20430;-49
2022/02/07 09:23:34;;;;;;;24.25;3.80;;;6.00;99.90;;;;;;5030546;28;20045;-48
2022/02/07 09:26:00;;;;;;;19.13;3.10;;;6.10;99.90;;;;;;5015927;28;20486;-50
2022/02/07 09:28:25;;;;;;;28.50;3.85;;;6.10;99.90;;;;;;5025932;28;20090;-51
2022/02/07 09:30:53;;;;;;;29.55;4.05;;;6.20;99.90;;;;;;5034112;28;20044;-48
2022/02/07 09:33:20;;;;;;;29.75;3.63;;;6.20;99.90;;;;;;5034179;28;20041;-48
2022/02/07 09:35:51;;;;;;;27.20;4.30;;;6.30;99.90;;;;;;5026681;28;20107;-48
2022/02/07 09:38:18;;;;;;;20.35;3.50;;;6.40;99.90;;;;;;5024075;28;20068;-48
2022/02/07 09:40:50;;;;;;;28.13;4.50;;;6.40;99.90;;;;;;5033445;28;20415;-52
2022/02/07 09:43:17;;;;;;;;;;;6.50;99.90;;;;;;5030811;28;20065;-52
2022/02/07 09:45:44;;;;;;;24.20;3.58;;;6.60;99.90;;;;;;5024215;28;19917;-50
2022/02/07 09:48:10;;;;;;;29.23;3.92;;;6.60;99.90;;;;;;5033653;28;20140;-51
2022/02/07 09:50:37;;;;;;;25.05;4.43;;;6.70;99.90;;;;;;5032456;28;20073;-51
2022/02/07 09:53:03;;;;;;;25.10;4.07;;;6.70;99.90;;;;;;5033405;28;20460;-48
2022/02/07 09:55:29;;;;;;;23.50;3.88;;;6.80;99.90;;;;;;5025191;28;20497;-48
2022/02/07 09:57:55;;;;;;;28.52;4.78;;;6.80;99.90;;;;;;5033368;28;20049;-50
2022/02/07 10:00:27;;;;;;;23.67;4.63;;;6.90;99.90;;;;;;5033898;28;20033;-48
2022/02/07 10:03:26;;;;;;;29.95;3.78;;;6.90;99.90;;;;;;5033558;28;20039;-50
2022/02/07 10:06:00;;;;;;;31.83;4.15;;;7.00;99.90;;;;;;5015760;28;20095;-51
2022/02/07 10:08:50;;;;;;;27.23;3.38;;;7.00;99.90;;;;;;5033481;28;20049;-48
2022/02/07 10:11:25;;;;;;;22.38;4.85;;;7.00;99.90;;;;;;5033438;28;20033;-48
2022/02/07 10:14:05;;;;;;;24.15;3.25;;;7.00;99.90;;;;;;5015405;28;20045;-49
2022/02/07 10:16:53;;;;;;;21.40;3.33;;;7.10;99.90;;;;;;5033172;28;20083;-51
2022/02/07 10:22:24;;;;;;;17.95;3.47;;;7.10;99.90;;;;;;5016735;28;20536;-48
2022/02/07 10:43:34;;;;;;;19.20;3.88;;;7.30;99.90;;;;;;5032149;28;20042;-51
2022/02/07 10:46:14;;;;;;;23.67;3.67;;;7.30;99.90;;;;;;5015124;28;20087;-53
2022/02/07 10:48:51;;;;;;;28.52;4.78;;;7.40;99.90;;;;;;5031253;28;20040;-52
2022/02/07 10:51:32;;;;;;;24.45;4.00;;;7.40;99.90;;;;;;5014855;28;20030;-48
2022/02/07 10:54:02;;;;;;;24.95;4.07;;;7.40;99.90;;;;;;5032619;28;20500;-51
2022/02/07 10:56:48;;;;;;;30.25;4.20;;;7.40;99.90;;;;;;5032434;28;20095;-48
2022/02/07 10:59:17;;;;;;;28.17;3.90;;;7.40;99.90;;;;;;5022953;28;20095;-51
2022/02/07 11:04:21;;;;;;;30.75;5.00;;;7.40;99.90;;;;;;5032239;28;20521;-51
2022/02/07 11:06:50;;;;;;;23.73;3.97;;;7.40;99.90;;;;;;5032251;28;20048;-50
2022/02/07 11:12:11;;;;;;;27.15;3.95;;;7.40;99.90;;;;;;5030927;28;20049;-49
2022/02/07 11:14:51;;;;;;;25.17;4.30;;;7.40;99.90;;;;;;5020738;28;20053;-49
2022/02/07 11:25:04;;;;;;;24.08;4.07;;;7.60;99.90;;;;;;5023872;28;20053;-48
2022/02/07 11:27:30;;;;;;;32.35;3.83;;;7.60;99.90;;;;;;5019949;28;20037;-48
2022/02/07 11:29:56;;;;;;;21.95;4.18;;;7.60;99.90;;;;;;5030513;28;20513;-49
2022/02/07 11:32:44;;;;;;;28.40;4.65;;;7.60;99.90;;;;;;5027785;28;20049;-48
2022/02/07 11:35:32;;;;;;;23.42;3.35;;;7.70;99.90;;;;;;5020539;28;20045;-48
2022/02/07 11:38:06;;;;;;;19.92;3.10;;;7.80;99.90;;;;;;5024525;28;20049;-48
2022/02/07 11:40:55;;;;;;;28.83;4.03;;;7.80;99.90;;;;;;5030457;28;20045;-48
2022/02/07 11:43:30;;;;;;;26.65;4.07;;;7.80;99.90;;;;;;5031552;28;20045;-48
2022/02/07 11:46:06;;;;;;;20.70;3.70;;;7.80;99.90;;;;;;5031798;28;20038;-49
2022/02/07 11:48:56;;;;;;;20.25;3.50;;;7.90;99.90;;;;;;5031732;28;20052;-48
2022/02/07 11:51:34;;;;;;;24.08;3.58;;;7.90;99.90;;;;;;5026333;28;20124;-48
2022/02/07 11:54:03;;;;;;;23.30;3.53;;;8.00;99.90;;;;;;5013966;28;20382;-48
2022/02/07 11:59:10;;;;;;;18.27;2.90;;;8.00;99.90;;;;;;5021928;28;20128;-48
2022/02/07 12:02:04;;;;;;;21.35;3.05;;;8.00;99.90;;;;;;5030240;28;20053;-48
2022/02/07 12:04:48;;;;;;;15.52;2.97;;;8.00;98.40;;;;;;5031407;28;20506;-50
2022/02/07 12:07:26;;;;;;;23.67;2.92;;;8.00;95.80;;;;;;5031111;28;20045;-49
2022/02/07 12:10:13;;;;;;;20.77;2.95;;;8.10;96.60;;;;;;5032496;28;20037;-49
2022/02/07 12:12:43;;;;;;;18.05;2.50;;;8.00;96.60;;;;;;5035171;28;20045;-52
2022/02/07 12:15:12;;;;;;;20.70;3.80;;;8.00;98.10;;;;;;5035637;28;20120;-51
2022/02/07 12:17:46;;;;;;;16.45;2.47;;;7.90;97.80;;;;;;5033667;28;20037;-52
2022/02/07 12:20:17;;;;;;;22.92;4.13;;;7.80;96.90;;;;;;5019440;28;20084;-48
2022/02/07 12:22:56;;;;;;;16.58;2.47;;;7.70;96.20;;;;;;5022350;28;20034;-52
2022/02/07 12:25:45;;;;;;;13.65;3.13;;;7.70;96.30;;;;;;5015711;28;20125;-52
2022/02/07 12:28:27;;;;;;;18.63;3.35;;;7.60;96.10;;;;;;5014014;28;20103;-52
2022/02/07 12:33:37;;;;;;;21.27;3.45;;;7.70;98.60;;;;;;5035059;28;20053;-49
2022/02/07 12:36:05;;;;;;;14.02;2.58;;;7.90;99.60;;;;;;5032128;28;20470;-48
2022/02/07 12:38:37;;;;;;;14.25;2.20;;;8.00;99.20;;;;;;5025790;28;20033;-52
2022/02/07 12:41:05;;;;;;;;;;;8.10;98.50;;;;;;5035494;28;20508;-50
2022/02/07 12:43:35;;;;;;;17.50;2.90;;;8.10;98.30;;;;;;5035067;28;20300;-52
2022/02/07 12:46:02;;;;;;;22.63;3.10;;;8.10;98.00;;;;;;5031729;28;20476;-49
2022/02/07 12:48:35;;;;;;;21.08;3.30;;;8.10;97.80;;;;;;5024374;28;20041;-50
2022/02/07 12:51:01;;;;;;;13.23;2.25;;;8.10;97.50;;;;;;5029314;28;20041;-50
2022/02/07 12:53:29;;;;;;;16.85;3.00;;;8.00;96.30;;;;;;5022947;28;20108;-54
2022/02/07 12:55:57;;;;;;;21.75;3.95;;;8.00;96.30;;;;;;5018800;28;20048;-51
2022/02/07 12:58:44;;;;;;;19.10;2.80;;;7.90;96.80;;;;;;5024608;28;20117;-50
2022/02/07 13:01:30;;;;;;;12.45;2.00;;;8.00;97.80;;;;;;5027880;28;20044;-53
2022/02/07 13:04:05;;;;;;;19.10;2.72;;;8.10;95.00;;;;;;5033672;28;20041;-51
2022/02/07 13:06:37;;;;;;;16.38;3.00;;;8.00;94.10;;;;;;5027568;28;20520;-52
2022/02/07 13:09:16;;;;;;;22.80;2.87;;;7.90;94.30;;;;;;5022361;28;20413;-53
2022/02/07 13:11:50;;;;;;;14.32;2.58;;;7.90;94.90;;;;;;5023272;28;20437;-54
2022/02/07 13:14:17;;;;;;;16.40;2.30;;;7.80;93.20;;;;;;5025652;28;20420;-52
2022/02/07 13:16:45;;;;;;;16.35;3.00;;;7.70;93.20;;;;;;5027004;28;20052;-52
2022/02/07 13:19:14;;;;;;;18.67;2.65;;;7.60;93.70;;;;;;5020966;28;20100;-52
2022/02/07 13:21:43;;;;;;;16.30;2.40;;;7.50;94.10;;;;;;5025391;28;20037;-51
2022/02/07 13:28:24;;;;;;;18.02;2.53;;;7.40;94.90;;;;;;5021244;28;20404;-49
2022/02/07 13:31:01;;;;;;;14.35;2.35;;;7.50;95.50;;;;;;5023072;28;20065;-50
2022/02/07 13:33:26;;;;;;;14.80;2.47;;;7.50;95.60;;;;;;5023434;28;20525;-48
2022/02/07 13:35:58;;;;;;;14.45;2.20;;;7.60;95.30;;;;;;5025766;28;20041;-52
2022/02/07 13:38:25;;;;;;;11.80;2.42;;;7.60;94.70;;;;;;5021231;28;20046;-52
2022/02/07 13:40:53;;;;;;;19.70;2.95;;;7.60;94.10;;;;;;5013722;28;20037;-50
2022/02/07 13:43:26;;;;;;;17.05;3.00;;;7.50;94.10;;;;;;5020140;28;20041;-53
2022/02/07 13:46:02;;;;;;;17.33;3.78;;;7.50;94.20;;;;;;5022721;28;20433;-49
2022/02/07 13:48:29;;;;;;;16.25;2.40;;;7.40;94.90;;;;;;5024137;28;20041;-52
2022/02/07 13:50:57;;;;;;;13.15;2.45;;;7.40;95.30;;;;;;5027246;28;20537;-50
2022/02/07 13:53:25;;;;;;;14.10;2.63;;;7.50;96.30;;;;;;5013889;28;20494;-50
2022/02/07 13:55:56;;;;;;;14.63;3.22;;;7.40;97.00;;;;;;5030646;28;20561;-52
2022/02/07 13:58:32;;;;;;;25.30;3.07;;;7.50;97.60;;;;;;5025222;28;20065;-49
2022/02/07 14:01:00;;;;;;;19.15;2.83;;;7.40;97.50;;;;;;5033451;28;20041;-52
2022/02/07 14:03:31;;;;;;;18.88;3.45;;;7.40;98.30;;;;;;5033736;28;20075;-48
2022/02/07 14:06:01;;;;;;;14.32;2.63;;;7.40;98.50;;;;;;5033622;28;20606;-50
2022/02/07 14:08:34;;;;;;;16.50;2.88;;;7.30;98.00;;;;;;5033332;28;20088;-49
2022/02/07 14:11:02;;;;;;;20.17;2.95;;;7.30;98.30;;;;;;5033349;28;20048;-51
2022/02/07 14:13:28;;;;;;;16.65;3.65;;;7.30;98.50;;;;;;5033271;28;20120;-49
2022/02/07 14:15:54;;;;;;;15.30;2.20;;;7.30;98.30;;;;;;5030015;28;20208;-52
2022/02/07 14:19:09;;;;;;;15.07;2.50;;;7.30;98.20;;;;;;5030296;28;20045;-56
2022/02/07 14:21:55;;;;;;;13.60;2.30;;;7.30;98.00;;;;;;5023597;28;20053;-51
2022/02/07 14:24:22;;;;;;;17.63;2.72;;;7.30;98.60;;;;;;5023015;28;20112;-52
2022/02/07 14:26:48;;;;;;;17.80;2.92;;;7.30;99.10;;;;;;5022236;28;20050;-52
2022/02/07 14:29:13;;;;;;;17.42;2.67;;;7.30;98.50;;;;;;5009922;28;20041;-47
2022/02/07 14:31:39;;;;;;;16.63;2.47;;;7.40;98.40;;;;;;5019159;28;20133;-47
2022/02/07 14:34:05;;;;;;;22.63;2.33;;;7.40;99.30;;;;;;5012226;28;20049;-49
2022/02/07 14:36:32;;;;;;;16.45;2.78;;;7.40;99.90;;;;;;5024908;28;20514;-53
2022/02/07 14:38:59;;;;;;;25.25;2.83;;;7.50;99.90;;;;;;5030233;28;20405;-49
2022/02/07 14:41:24;;;;;;;12.65;2.33;;;7.60;99.90;;;;;;5028411;28;20448;-51
2022/02/07 14:43:53;;;;;;;11.05;2.33;;;7.60;99.90;;;;;;5032582;28;20041;-48
2022/02/07 14:46:23;;;;;;;16.35;2.28;;;7.70;98.50;;;;;;5026956;28;20052;-47
2022/02/07 14:48:49;;;;;;;17.02;2.70;;;7.60;98.50;;;;;;5020482;28;20064;-51
2022/02/07 14:51:15;;;;;;;15.35;2.95;;;7.60;98.60;;;;;;5027653;28;20045;-50
2022/02/07 14:53:41;;;;;;;14.88;2.50;;;7.50;99.30;;;;;;5023629;28;20038;-51
2022/02/07 14:56:08;;;;;;;17.67;3.25;;;7.40;99.30;;;;;;5024386;28;20371;-50
2022/02/07 14:58:34;;;;;;;14.85;2.30;;;7.40;98.50;;;;;;5031938;28;20029;-52
2022/02/07 15:01:00;;;;;;;11.50;2.22;;;7.30;98.60;;;;;;5020135;28;20060;-51
2022/02/07 15:03:26;;;;;;;11.63;2.10;;;7.30;99.30;;;;;;5022369;28;20038;-56
2022/02/07 15:05:54;;;;;;;17.88;2.22;;;7.30;99.60;;;;;;5012900;28;20030;-51
2022/02/07 15:08:21;;;;;;;16.10;2.17;;;7.20;99.90;;;;;;5012364;28;20121;-52
2022/02/07 15:10:47;;;;;;;13.15;2.28;;;7.10;98.50;;;;;;5011899;28;20502;-51
2022/02/07 15:13:12;;;;;;;18.50;2.47;;;7.00;98.40;;;;;;5017074;28;20048;-47
2022/02/07 15:15:38;;;;;;;14.00;2.20;;;7.00;98.60;;;;;;5023305;28;20116;-49
2022/02/07 15:18:08;;;;;;;15.15;2.03;;;6.90;98.80;;;;;;5031498;28;20037;-48
2022/02/07 15:20:36;;;;;;;15.13;2.50;;;6.90;99.00;;;;;;5023835;28;20079;-49
2022/02/07 15:23:02;;;;;;;13.88;2.58;;;6.90;99.60;;;;;;5021790;28;20243;-50
2022/02/07 15:25:30;;;;;;;18.98;2.30;;;6.80;99.90;;;;;;5017317;28;20551;-49
2022/02/07 15:27:58;;;;;;;12.88;2.20;;;6.80;99.90;;;;;;5017291;28;20513;-48
2022/02/07 15:30:25;;;;;;;11.02;2.00;;;6.80;99.90;;;;;;5016273;28;20355;-47
2022/02/07 15:32:52;;;;;;;15.35;2.25;;;6.80;99.90;;;;;;5016376;28;20061;-49
2022/02/07 15:35:19;;;;;;;10.25;1.88;;;6.80;99.90;;;;;;5012257;28;20426;-49